createdAt,value
2023-03-01T00:01:25.256Z,-3.19
2023-03-01T00:03:54.132Z,-3.21
2023-03-01T00:06:22.455Z,-3.24
2023-03-01T00:08:50.675Z,-3.27
2023-03-01T00:11:22.021Z,-3.31
2023-03-01T00:13:51.060Z,-3.35
2023-03-01T00:16:20.306Z,-3.36
2023-03-01T00:18:49.187Z,-3.38
2023-03-01T00:21:17.970Z,-3.40
2023-03-01T00:23:46.494Z,-3.41
2023-03-01T00:26:15.258Z,-3.44
2023-03-01T00:28:44.122Z,-3.45
2023-03-01T00:31:19.828Z,-3.46
2023-03-01T00:33:48.141Z,-3.45
2023-03-01T00:36:16.510Z,-3.44
2023-03-01T00:38:46.390Z,-3.42
2023-03-01T00:41:15.503Z,-3.41
2023-03-01T00:43:44.365Z,-3.41
2023-03-01T00:46:17.035Z,-3.43
2023-03-01T00:48:45.556Z,-3.44
2023-03-01T00:51:15.013Z,-3.45
2023-03-01T00:53:43.397Z,-3.46
2023-03-01T00:56:12.759Z,-3.46
2023-03-01T00:58:41.784Z,-3.47
2023-03-01T01:01:18.432Z,-3.48
2023-03-01T01:03:47.140Z,-3.50
2023-03-01T01:06:16.390Z,-3.53
2023-03-01T01:08:45.380Z,-3.56
2023-03-01T01:11:13.955Z,-3.60
2023-03-01T01:13:42.532Z,-3.65
2023-03-01T01:16:11.452Z,-3.69
2023-03-01T01:18:40.119Z,-3.71
2023-03-01T01:21:09.436Z,-3.73
2023-03-01T01:23:38.057Z,-3.78
2023-03-01T01:26:14.088Z,-3.80
2023-03-01T01:28:42.629Z,-3.81
2023-03-01T01:31:15.523Z,-3.84
2023-03-01T01:33:45.295Z,-3.88
2023-03-01T01:36:13.568Z,-3.92
2023-03-01T08:25:08.453Z,19.00
2023-03-01T08:27:37.156Z,19.06
2023-03-01T08:30:08.733Z,19.30
2023-03-01T08:32:40.954Z,19.41
2023-03-01T08:35:12.968Z,19.50
2023-03-01T08:37:41.339Z,19.27
2023-03-01T08:40:11.176Z,19.16
2023-03-01T08:42:43.881Z,19.27
2023-03-01T08:45:12.552Z,19.41
2023-03-01T08:47:41.025Z,19.04
2023-03-01T08:50:09.795Z,18.27
2023-03-01T08:52:38.161Z,17.99
2023-03-01T08:55:09.467Z,17.76
2023-03-01T08:57:37.730Z,17.35
2023-03-01T09:00:09.769Z,16.99
2023-03-01T09:02:38.299Z,16.62
2023-03-01T09:05:06.697Z,16.07
2023-03-01T09:07:38.220Z,15.90
2023-03-01T09:10:07.314Z,15.79
2023-03-01T09:12:35.602Z,15.55
2023-03-01T09:15:03.952Z,15.67
2023-03-01T09:17:33.114Z,15.94
2023-03-01T09:20:01.295Z,16.40
2023-03-01T09:22:36.585Z,16.78
2023-03-01T09:25:05.029Z,16.78
2023-03-01T09:27:34.164Z,16.37
2023-03-01T09:30:02.901Z,16.03
2023-03-01T09:32:37.842Z,15.92
2023-03-01T09:35:06.380Z,16.07
2023-03-01T09:37:34.815Z,16.44
2023-03-01T09:40:05.661Z,16.79
2023-03-01T09:42:35.242Z,16.76
2023-03-01T09:45:26.352Z,16.64
2023-03-01T09:47:54.780Z,16.52
2023-03-01T09:50:23.049Z,16.07
2023-03-01T09:53:23.700Z,15.96
2023-03-01T09:56:01.778Z,16.14
2023-03-01T09:58:49.523Z,16.17
2023-03-01T10:01:37.477Z,16.30
2023-03-01T10:04:18.158Z,16.58
2023-03-01T10:06:50.236Z,16.51
2023-03-01T10:09:19.212Z,16.30
2023-03-01T10:11:51.508Z,16.40
2023-03-01T10:14:19.890Z,16.17
2023-03-01T10:16:49.985Z,16.17
2023-03-01T10:19:28.505Z,16.23
2023-03-01T10:21:56.755Z,16.20
2023-03-01T10:24:28.667Z,16.23
2023-03-01T10:26:58.380Z,16.28
2023-03-01T10:29:35.979Z,16.36
2023-03-01T10:32:04.452Z,16.37
2023-03-01T10:34:33.176Z,16.40
2023-03-01T10:37:11.640Z,16.35
2023-03-01T10:39:55.358Z,15.70
2023-03-01T10:42:27.055Z,15.06
2023-03-01T10:44:55.559Z,14.52
2023-03-01T10:47:26.861Z,14.34
2023-03-01T10:49:55.221Z,14.35
2023-03-01T10:52:33.729Z,14.30
2023-03-01T10:55:05.010Z,14.17
2023-03-01T10:57:39.435Z,14.16
2023-03-01T11:00:22.226Z,14.27
2023-03-01T11:02:51.512Z,14.31
2023-03-01T11:05:21.473Z,14.29
2023-03-01T11:07:53.135Z,14.07
2023-03-01T11:10:44.012Z,14.02
2023-03-01T11:13:16.827Z,14.09
2023-03-01T11:15:59.424Z,14.07
2023-03-01T11:18:44.357Z,14.08
2023-03-01T11:21:15.497Z,14.05
2023-03-01T11:23:45.047Z,13.89
2023-03-01T11:26:13.531Z,13.84
2023-03-01T11:28:44.351Z,13.77
2023-03-01T11:31:17.962Z,13.65
2023-03-01T11:34:01.017Z,13.46
2023-03-01T11:36:33.910Z,13.43
2023-03-01T11:39:14.833Z,13.25
2023-03-01T11:41:43.144Z,12.93
2023-03-01T11:44:25.287Z,12.61
2023-03-01T11:47:01.169Z,12.39
2023-03-01T11:49:29.584Z,12.40
2023-03-01T11:52:16.463Z,12.25
2023-03-01T11:54:44.759Z,11.86
2023-03-01T11:57:44.233Z,11.67
2023-03-01T12:00:19.034Z,11.61
2023-03-01T12:02:56.153Z,11.21
2023-03-01T12:05:37.897Z,10.85
2023-03-01T12:08:22.753Z,10.84
2023-03-01T12:10:52.349Z,10.94
2023-03-01T12:13:34.562Z,10.82
2023-03-01T12:16:36.297Z,10.71
2023-03-01T12:19:15.386Z,10.54
2023-03-01T12:21:43.736Z,10.40
2023-03-01T12:24:18.041Z,10.14
2023-03-01T12:26:50.166Z,9.61
2023-03-01T12:29:32.459Z,9.15
2023-03-01T12:32:00.770Z,8.98
2023-03-01T12:34:31.979Z,8.84
2023-03-01T12:37:00.487Z,8.69
2023-03-01T12:40:01.465Z,8.56
2023-03-01T12:42:48.559Z,8.39
2023-03-01T12:45:16.876Z,8.26
2023-03-01T12:47:49.964Z,8.12
2023-03-01T12:50:20.195Z,8.11
2023-03-01T12:52:50.489Z,8.17
2023-03-01T12:55:26.122Z,8.10
2023-03-01T12:58:00.489Z,7.91
2023-03-01T13:00:30.222Z,7.62
2023-03-01T13:03:26.565Z,7.43
2023-03-01T13:06:10.135Z,7.26
2023-03-01T13:08:39.368Z,6.97
2023-03-01T13:11:21.987Z,6.68
2023-03-01T13:13:52.926Z,6.48
2023-03-01T13:16:52.206Z,6.38
2023-03-01T13:19:24.374Z,6.34
2023-03-01T13:21:57.590Z,6.32
2023-03-01T13:24:25.903Z,6.27
2023-03-01T13:27:09.398Z,6.16
2023-03-01T13:29:46.852Z,5.99
2023-03-01T13:32:34.381Z,5.82
2023-03-01T13:35:19.113Z,5.70
2023-03-01T13:37:47.524Z,5.63
2023-03-01T13:40:23.684Z,5.58
2023-03-01T13:43:04.560Z,5.51
2023-03-01T13:45:38.400Z,5.46
2023-03-01T13:48:10.945Z,5.39
2023-03-01T13:50:41.740Z,5.29
2023-03-01T13:53:11.196Z,5.17
2023-03-01T13:55:43.604Z,5.11
2023-03-01T13:58:31.696Z,5.08
2023-03-01T14:01:06.904Z,5.04
2023-03-01T14:03:42.830Z,4.97
2023-03-01T14:06:17.742Z,4.85
2023-03-01T14:08:47.661Z,4.75
2023-03-01T14:11:16.006Z,4.68
2023-03-01T14:14:03.356Z,4.66
2023-03-01T14:16:34.939Z,4.65
2023-03-01T14:19:31.211Z,4.63
2023-03-01T14:22:04.113Z,4.55
2023-03-01T14:24:36.261Z,4.47
2023-03-01T14:27:04.485Z,4.42
2023-03-01T14:29:36.826Z,4.41
2023-03-01T14:32:12.073Z,4.40
2023-03-01T14:34:43.776Z,4.38
2023-03-01T14:37:13.367Z,4.33
2023-03-01T14:39:42.050Z,4.29
2023-03-01T14:42:15.827Z,4.24
2023-03-01T14:44:44.895Z,4.15
2023-03-01T14:47:14.907Z,4.05
2023-03-01T14:49:43.264Z,3.97
2023-03-01T14:52:19.657Z,3.90
2023-03-01T14:54:51.681Z,3.84
2023-03-01T14:57:20.984Z,3.78
2023-03-01T14:59:49.961Z,3.72
2023-03-01T15:02:25.229Z,3.66
2023-03-01T15:04:57.844Z,3.59
2023-03-01T15:07:27.882Z,3.55
2023-03-01T15:09:56.749Z,3.50
2023-03-01T15:12:45.331Z,3.43
2023-03-01T15:15:23.007Z,3.33
2023-03-01T15:17:56.412Z,3.25
2023-03-01T15:20:27.030Z,3.16
2023-03-01T15:22:55.420Z,3.09
2023-03-01T15:25:27.482Z,3.02
2023-03-01T15:27:56.539Z,2.90
2023-03-01T15:30:24.951Z,2.79
2023-03-01T15:33:20.436Z,2.69
2023-03-01T15:35:54.785Z,2.58
2023-03-01T15:38:43.997Z,2.48
2023-03-01T15:41:34.194Z,2.40
2023-03-01T15:44:15.197Z,2.31
2023-03-01T15:46:46.621Z,2.22
2023-03-01T15:49:33.300Z,2.16
2023-03-01T15:52:01.628Z,2.12
2023-03-01T15:54:30.411Z,2.06
2023-03-01T15:56:58.729Z,2.00
2023-03-01T15:59:26.934Z,1.95
2023-03-01T16:01:55.107Z,1.92
2023-03-01T16:04:27.813Z,1.89
2023-03-01T16:06:56.970Z,1.85
2023-03-01T16:09:26.601Z,1.81
2023-03-01T16:11:55.142Z,1.80
2023-03-01T16:14:23.484Z,1.82
2023-03-01T16:16:55.236Z,1.84
2023-03-01T16:19:24.454Z,1.85
2023-03-01T16:21:52.780Z,1.86
2023-03-01T16:24:21.109Z,1.88
2023-03-01T16:26:49.358Z,1.90
2023-03-01T16:29:17.919Z,1.90
2023-03-01T16:31:46.256Z,1.87
2023-03-01T16:34:14.536Z,1.82
2023-03-01T16:36:43.732Z,1.74
2023-03-01T16:39:11.964Z,1.67
2023-03-01T16:41:40.739Z,1.60
2023-03-01T16:44:08.921Z,1.54
2023-03-01T16:46:38.548Z,1.49
2023-03-01T16:49:06.770Z,1.47
2023-03-01T16:51:36.916Z,1.47
2023-03-01T16:54:05.774Z,1.47
2023-03-01T16:56:36.896Z,1.48
2023-03-01T16:59:06.413Z,1.50
2023-03-01T17:01:42.342Z,1.51
2023-03-01T17:04:13.882Z,1.51
2023-03-01T17:06:42.325Z,1.51
2023-03-01T17:09:10.857Z,1.50
2023-03-01T17:11:39.109Z,1.51
2023-03-01T17:14:07.928Z,1.53
2023-03-01T17:16:37.056Z,1.55
2023-03-01T17:19:05.441Z,1.58
2023-03-01T17:21:34.992Z,1.59
2023-03-01T17:24:04.083Z,1.61
2023-03-01T17:26:34.605Z,1.61
2023-03-01T17:29:03.992Z,1.59
2023-03-01T17:31:33.554Z,1.61
2023-03-01T17:34:02.605Z,1.60
2023-03-01T17:36:31.079Z,1.61
2023-03-01T17:38:59.713Z,1.61
2023-03-01T17:41:29.048Z,1.61
2023-03-01T17:43:57.521Z,1.61
2023-03-01T17:46:27.143Z,1.61
2023-03-01T17:48:55.692Z,1.63
2023-03-01T17:51:44.720Z,1.60
2023-03-01T17:54:13.390Z,1.57
2023-03-01T17:56:42.890Z,1.55
2023-03-01T17:59:11.258Z,1.56
2023-03-01T18:01:42.832Z,1.54
2023-03-01T18:04:11.694Z,1.51
2023-03-01T18:06:41.097Z,1.45
2023-03-01T18:09:09.474Z,1.40
2023-03-01T18:11:42.396Z,1.32
2023-03-01T18:14:10.631Z,1.26
2023-03-01T18:16:40.115Z,1.20
2023-03-01T18:19:12.357Z,1.16
2023-03-01T18:21:44.031Z,1.12
2023-03-01T18:24:12.276Z,1.08
2023-03-01T18:26:42.511Z,1.05
2023-03-01T18:29:10.804Z,1.03
2023-03-01T18:31:41.923Z,1.03
2023-03-01T18:34:10.340Z,1.00
2023-03-01T18:36:41.407Z,0.99
2023-03-01T18:39:09.754Z,0.96
2023-03-01T18:41:38.088Z,0.93
2023-03-01T18:44:07.021Z,0.95
2023-03-01T18:46:37.924Z,0.97
2023-03-01T18:49:06.908Z,1.01
2023-03-01T18:51:36.450Z,1.06
2023-03-01T18:54:04.823Z,1.12
2023-03-01T18:56:33.559Z,1.18
2023-03-01T18:59:04.273Z,1.23
2023-03-01T19:01:36.676Z,1.28
2023-03-01T19:04:05.512Z,1.34
2023-03-01T19:06:34.798Z,1.39
2023-03-01T19:09:03.405Z,1.45
2023-03-01T19:11:33.821Z,1.50
2023-03-01T19:14:02.361Z,1.54
2023-03-01T19:16:36.024Z,1.60
2023-03-01T19:19:05.366Z,1.64
2023-03-01T19:21:34.357Z,1.67
2023-03-01T19:24:03.031Z,1.69
2023-03-01T19:26:32.102Z,1.70
2023-03-01T19:29:06.615Z,1.69
2023-03-01T19:31:35.719Z,1.69
2023-03-01T19:34:12.575Z,1.71
2023-03-01T19:36:43.371Z,1.70
2023-03-01T19:39:13.909Z,1.68
2023-03-01T19:41:42.962Z,1.70
2023-03-01T19:44:12.796Z,1.71
2023-03-01T19:46:41.119Z,1.75
2023-03-01T19:49:09.873Z,1.80
2023-03-01T19:51:39.669Z,1.82
2023-03-01T19:54:10.086Z,1.84
2023-03-01T19:56:39.765Z,1.83
2023-03-01T19:59:07.985Z,1.80
2023-03-01T20:01:38.067Z,1.72
2023-03-01T20:04:09.340Z,1.66
2023-03-01T20:06:38.260Z,1.63
2023-03-01T20:09:20.308Z,1.62
2023-03-01T20:11:51.930Z,1.56
2023-03-01T20:14:24.470Z,1.51
2023-03-01T20:16:54.435Z,1.46
2023-03-01T20:19:22.866Z,1.35
2023-03-01T20:21:53.859Z,1.21
2023-03-01T20:24:23.189Z,1.08
2023-03-01T20:26:51.446Z,0.95
2023-03-01T20:29:20.194Z,0.79
2023-03-01T20:31:48.536Z,0.62
2023-03-01T20:34:16.933Z,0.49
2023-03-01T20:36:46.192Z,0.40
2023-03-01T20:39:14.756Z,0.34
2023-03-01T20:41:46.382Z,0.27
2023-03-01T20:44:18.123Z,0.24
2023-03-01T20:46:47.181Z,0.22
2023-03-01T20:49:15.593Z,0.21
2023-03-01T20:51:44.552Z,0.19
2023-03-01T20:54:14.149Z,0.17
2023-03-01T20:56:43.327Z,0.11
2023-03-01T20:59:11.500Z,0.08
2023-03-01T21:01:40.478Z,0.06
2023-03-01T21:04:10.198Z,0.04
2023-03-01T21:06:39.801Z,0.02
2023-03-01T21:09:08.532Z,-0.01
2023-03-01T21:11:41.071Z,-0.04
2023-03-01T21:14:09.684Z,-0.06
2023-03-01T21:16:38.117Z,-0.08
2023-03-01T21:19:11.001Z,-0.09
2023-03-01T21:21:39.443Z,-0.09
2023-03-01T21:24:10.767Z,-0.10
2023-03-01T21:26:39.491Z,-0.07
2023-03-01T21:29:07.809Z,-0.04
2023-03-01T21:31:38.820Z,-0.05
2023-03-01T21:34:07.475Z,-0.06
2023-03-01T21:36:36.411Z,-0.05
2023-03-01T21:39:05.518Z,-0.01
2023-03-01T21:41:35.268Z,0.03
2023-03-01T21:44:03.853Z,0.07
2023-03-01T21:46:33.649Z,0.12
2023-03-01T21:49:04.916Z,0.18
2023-03-01T21:51:33.915Z,0.22
2023-03-01T21:54:02.270Z,0.27
2023-03-01T21:56:32.130Z,0.31
2023-03-01T21:59:01.047Z,0.34
2023-03-01T22:01:30.443Z,0.38
2023-03-01T22:03:59.143Z,0.41
2023-03-01T22:06:29.733Z,0.42
2023-03-01T22:09:01.706Z,0.43
2023-03-01T22:11:31.012Z,0.42
2023-03-01T22:13:59.250Z,0.40
2023-03-01T22:16:29.184Z,0.36
2023-03-01T22:18:57.632Z,0.34
2023-03-01T22:21:26.477Z,0.34
2023-03-01T22:23:57.760Z,0.34
2023-03-01T22:26:26.645Z,0.34
2023-03-01T22:28:55.587Z,0.36
2023-03-01T22:31:24.056Z,0.34
2023-03-01T22:33:52.607Z,0.33
2023-03-01T22:36:20.956Z,0.31
2023-03-01T22:38:49.804Z,0.30
2023-03-01T22:41:18.819Z,0.30
2023-03-01T22:43:47.080Z,0.31
2023-03-01T22:46:16.302Z,0.28
2023-03-01T22:48:46.508Z,0.25
2023-03-01T22:51:21.854Z,0.23
2023-03-01T22:53:52.102Z,0.22
2023-03-01T22:56:24.152Z,0.20
2023-03-01T22:58:52.459Z,0.20
2023-03-01T23:01:21.781Z,0.15
2023-03-01T23:03:51.638Z,0.12
2023-03-01T23:06:20.163Z,0.08
2023-03-01T23:08:50.155Z,0.05
2023-03-01T23:11:19.304Z,-0.00
2023-03-01T23:13:47.823Z,-0.06
2023-03-01T23:16:16.616Z,-0.08
2023-03-01T23:18:45.090Z,-0.10
2023-03-01T23:21:15.141Z,-0.13
2023-03-01T23:23:43.999Z,-0.15
2023-03-01T23:26:12.358Z,-0.18
2023-03-01T23:28:41.175Z,-0.22
2023-03-01T23:31:10.709Z,-0.25
2023-03-01T23:33:39.474Z,-0.30
2023-03-01T23:36:08.483Z,-0.35
2023-03-01T23:38:37.861Z,-0.37
2023-03-01T23:41:09.492Z,-0.41
2023-03-01T23:43:37.798Z,-0.44
2023-03-01T23:46:06.459Z,-0.49
2023-03-01T23:48:34.757Z,-0.57
2023-03-01T23:51:12.023Z,-0.61
2023-03-01T23:53:41.803Z,-0.65
2023-03-01T23:56:11.434Z,-0.71
2023-03-01T23:58:40.471Z,-0.77
